createdAt,value
2022-11-26T00:02:24.834Z,101246.59
2022-11-26T00:05:31.210Z,101238.50
2022-11-26T00:08:35.557Z,101240.91
2022-11-26T00:11:40.471Z,101251.66
2022-11-26T00:14:43.245Z,101247.13
2022-11-26T00:17:46.538Z,101252.31
2022-11-26T00:20:54.694Z,101247.97
2022-11-26T00:23:57.606Z,101254.41
2022-11-26T00:27:00.441Z,101261.44
2022-11-26T00:30:14.016Z,101244.84
2022-11-26T00:33:16.595Z,101263.34
2022-11-26T00:36:32.363Z,101267.72
2022-11-26T00:39:36.709Z,101269.19
2022-11-26T00:42:39.595Z,101269.75
2022-11-26T00:45:42.769Z,101290.03
2022-11-26T00:48:46.015Z,101294.31
2022-11-26T00:51:49.280Z,101292.41
2022-11-26T00:54:52.268Z,101299.00
2022-11-26T00:57:55.342Z,101319.59
2022-11-26T01:00:59.634Z,101319.22
2022-11-26T01:04:02.519Z,101330.34
2022-11-26T01:07:05.362Z,101334.78
2022-11-26T01:10:18.455Z,101324.03
2022-11-26T01:13:21.576Z,101331.34
2022-11-26T01:16:27.489Z,101330.59
2022-11-26T01:19:30.511Z,101317.47
2022-11-26T01:22:33.156Z,101339.19
2022-11-26T01:25:36.148Z,101337.16
2022-11-26T01:28:38.864Z,101339.94
2022-11-26T01:31:41.865Z,101333.44
2022-11-26T01:34:44.539Z,101331.81
2022-11-26T01:37:47.946Z,101323.41
2022-11-26T01:41:15.760Z,101297.41
2022-11-26T01:44:23.245Z,101319.38
2022-11-26T01:47:29.477Z,101321.34
2022-11-26T01:50:48.234Z,101332.09
2022-11-26T01:54:00.969Z,101319.06
2022-11-26T01:57:10.522Z,101317.72
2022-11-26T02:00:13.873Z,101324.28
2022-11-26T02:03:16.820Z,101328.81
2022-11-26T02:06:23.794Z,101318.97
2022-11-26T02:09:28.046Z,101318.06
2022-11-26T02:12:31.311Z,101310.63
2022-11-26T02:15:48.079Z,101310.84
2022-11-26T02:19:15.118Z,101312.63
2022-11-26T02:22:39.064Z,101302.81
2022-11-26T02:26:13.063Z,101321.59
2022-11-26T02:29:58.864Z,101321.91
2022-11-26T02:33:11.880Z,101322.31
2022-11-26T02:36:25.484Z,101325.00
2022-11-26T02:39:30.594Z,101304.37
2022-11-26T02:42:34.966Z,101328.63
2022-11-26T02:45:41.100Z,101341.87
2022-11-26T02:48:50.121Z,101331.50
2022-11-26T02:51:58.694Z,101352.28
2022-11-26T02:55:03.883Z,101349.59
2022-11-26T02:58:07.296Z,101350.38
2022-11-26T03:01:16.895Z,101352.69
2022-11-26T03:04:24.930Z,101359.88
2022-11-26T03:07:31.987Z,101364.12
2022-11-26T03:10:35.139Z,101361.88
2022-11-26T03:13:37.755Z,101360.88
2022-11-26T03:16:41.034Z,101361.88
2022-11-26T03:19:44.364Z,101372.19
2022-11-26T03:22:47.531Z,101377.41
2022-11-26T03:25:50.249Z,101373.94
2022-11-26T03:28:53.263Z,101376.47
2022-11-26T03:31:56.220Z,101378.38
2022-11-26T03:34:59.299Z,101388.19
2022-11-26T03:38:01.945Z,101391.66
2022-11-26T03:41:05.301Z,101386.78
2022-11-26T03:44:07.978Z,101390.63
2022-11-26T03:47:10.906Z,101402.53
2022-11-26T03:50:13.650Z,101404.25
2022-11-26T03:53:16.514Z,101417.91
2022-11-26T03:56:19.172Z,101423.84
2022-11-26T03:59:22.222Z,101433.91
2022-11-26T04:02:24.822Z,101438.25
2022-11-26T04:05:27.700Z,101423.97
2022-11-26T04:08:30.406Z,101442.03
2022-11-26T04:11:33.744Z,101440.25
2022-11-26T04:14:36.750Z,101449.88
2022-11-26T04:17:39.927Z,101447.37
2022-11-26T04:20:42.622Z,101456.03
2022-11-26T04:23:45.515Z,101459.44
2022-11-26T04:26:48.231Z,101457.22
2022-11-26T04:29:51.283Z,101446.19
2022-11-26T04:32:53.936Z,101442.94
2022-11-26T04:35:56.898Z,101457.78
2022-11-26T04:38:59.635Z,101463.66
2022-11-26T04:42:02.932Z,101481.19
2022-11-26T04:45:06.148Z,101470.44
2022-11-26T04:48:17.998Z,101472.62
2022-11-26T04:51:20.724Z,101482.44
2022-11-26T04:54:23.635Z,101478.84
2022-11-26T04:57:26.492Z,101473.87
2022-11-26T05:00:32.274Z,101468.97
2022-11-26T05:03:36.739Z,101479.91
2022-11-26T05:06:39.786Z,101473.44
2022-11-26T05:09:42.454Z,101471.00
2022-11-26T05:12:45.365Z,101464.88
2022-11-26T05:15:48.218Z,101478.28
2022-11-26T05:18:51.148Z,101464.69
2022-11-26T05:21:53.727Z,101468.03
2022-11-26T05:24:56.672Z,101466.53
2022-11-26T05:27:59.314Z,101473.03
2022-11-26T05:31:04.031Z,101476.66
2022-11-26T05:34:06.720Z,101478.84
2022-11-26T05:37:09.651Z,101475.84
2022-11-26T05:40:12.610Z,101475.91
2022-11-26T05:43:15.638Z,101482.13
2022-11-26T05:46:19.218Z,101486.34
2022-11-26T05:49:22.187Z,101486.53
2022-11-26T05:52:25.248Z,101482.69
2022-11-26T05:55:28.282Z,101487.91
2022-11-26T05:58:31.232Z,101486.47
2022-11-26T06:01:34.227Z,101484.59
2022-11-26T06:04:37.254Z,101480.81
2022-11-26T06:07:44.534Z,101472.94
2022-11-26T06:10:48.083Z,101475.19
2022-11-26T06:13:50.687Z,101490.16
2022-11-26T06:16:53.793Z,101477.84
2022-11-26T06:19:56.490Z,101481.16
2022-11-26T06:22:59.384Z,101483.69
2022-11-26T06:26:07.004Z,101471.06
2022-11-26T06:29:10.033Z,101488.19
2022-11-26T06:32:12.691Z,101460.63
2022-11-26T06:35:16.002Z,101482.81
2022-11-26T06:38:18.648Z,101473.91
2022-11-26T06:41:21.664Z,101474.78
2022-11-26T06:44:24.242Z,101497.22
2022-11-26T06:47:27.379Z,101503.31
2022-11-26T06:50:29.996Z,101508.56
2022-11-26T06:53:33.319Z,101500.84
2022-11-26T06:56:35.923Z,101505.81
2022-11-26T06:59:38.906Z,101529.22
2022-11-26T07:02:42.317Z,101538.84
2022-11-26T07:05:45.296Z,101532.44
2022-11-26T07:08:49.109Z,101533.50
2022-11-26T07:11:52.791Z,101527.34
2022-11-26T07:14:55.391Z,101540.91
2022-11-26T07:17:59.316Z,101540.50
2022-11-26T07:21:12.908Z,101539.41
2022-11-26T07:24:16.439Z,101547.59
2022-11-26T07:27:19.045Z,101559.00
2022-11-26T07:30:22.518Z,101559.19
2022-11-26T07:33:25.102Z,101548.59
2022-11-26T07:36:29.771Z,101566.59
2022-11-26T07:39:32.367Z,101537.97
2022-11-26T07:42:35.291Z,101566.91
2022-11-26T07:45:38.168Z,101574.62
2022-11-26T07:48:41.213Z,101578.19
2022-11-26T07:51:43.904Z,101576.66
2022-11-26T07:54:46.808Z,101574.06
2022-11-26T07:57:49.484Z,101589.41
2022-11-26T08:00:54.850Z,101591.03
2022-11-26T08:04:00.132Z,101586.53
2022-11-26T08:07:03.612Z,101596.22
2022-11-26T08:10:07.123Z,101583.97
2022-11-26T08:13:10.372Z,101607.78
2022-11-26T08:16:14.164Z,101623.06
2022-11-26T08:19:16.972Z,101615.97
2022-11-26T08:22:19.903Z,101625.28
2022-11-26T08:25:22.558Z,101619.84
2022-11-26T08:28:25.508Z,101607.63
2022-11-26T08:31:28.625Z,101613.84
2022-11-26T08:34:31.698Z,101616.87
2022-11-26T08:37:34.271Z,101621.97
2022-11-26T08:40:39.406Z,101633.25
2022-11-26T08:47:04.958Z,101641.94
2022-11-26T08:50:08.305Z,101639.81
2022-11-26T08:53:11.671Z,101650.06
2022-11-26T08:56:14.413Z,101657.94
2022-11-26T08:59:19.961Z,101655.44
2022-11-26T09:02:23.526Z,101652.88
2022-11-26T09:05:26.723Z,101638.38
2022-11-26T09:08:29.543Z,101652.81
2022-11-26T09:11:35.966Z,101637.19
2022-11-26T09:14:40.521Z,101654.37
2022-11-26T09:17:43.547Z,101655.31
2022-11-26T09:20:46.164Z,101630.06
2022-11-26T09:23:49.022Z,101644.69
2022-11-26T09:26:52.115Z,101648.41
2022-11-26T09:29:55.184Z,101635.84
2022-11-26T09:32:57.942Z,101636.94
2022-11-26T09:36:12.131Z,101630.09
2022-11-26T09:39:14.827Z,101630.09
2022-11-26T09:42:42.757Z,101644.06
2022-11-26T09:45:55.868Z,101644.66
2022-11-26T09:49:04.039Z,101645.22
2022-11-26T09:52:09.531Z,101642.44
2022-11-26T09:55:26.960Z,101638.16
2022-11-26T09:58:29.516Z,101649.88
2022-11-26T10:01:34.459Z,101644.53
2022-11-26T10:04:38.435Z,101630.84
2022-11-26T10:08:07.981Z,101636.87
2022-11-26T10:11:20.977Z,101632.84
2022-11-26T10:14:51.356Z,101641.50
2022-11-26T10:18:33.821Z,101617.19
2022-11-26T10:21:59.720Z,101629.16
2022-11-26T10:25:17.607Z,101624.19
2022-11-26T10:28:33.007Z,101632.41
2022-11-26T10:31:36.677Z,101629.06
2022-11-26T10:34:48.644Z,101633.87
2022-11-26T10:37:52.374Z,101632.78
2022-11-26T10:40:56.352Z,101623.50
2022-11-26T10:44:34.798Z,101612.28
2022-11-26T10:47:37.382Z,101613.94
2022-11-26T10:50:47.689Z,101613.59
2022-11-26T10:54:05.347Z,101617.16
2022-11-26T10:57:17.870Z,101609.47
2022-11-26T11:00:36.046Z,101622.78
2022-11-26T11:04:08.579Z,101620.06
2022-11-26T11:07:42.979Z,101617.19
2022-11-26T11:10:54.343Z,101624.25
2022-11-26T11:13:57.807Z,101591.19
2022-11-26T11:17:00.700Z,101612.87
2022-11-26T11:20:25.436Z,101608.34
2022-11-26T11:24:06.514Z,101611.28
2022-11-26T11:27:02.897Z,101600.34
2022-11-26T11:30:06.451Z,101599.72
2022-11-26T11:33:22.549Z,101603.37
2022-11-26T11:36:29.523Z,101606.94
2022-11-26T11:39:35.872Z,101606.91
2022-11-26T11:42:40.599Z,101605.91
2022-11-26T11:45:53.127Z,101601.28
2022-11-26T11:49:31.180Z,101602.25
2022-11-26T11:52:41.953Z,101603.66
2022-11-26T11:55:58.153Z,101599.81
2022-11-26T11:59:16.524Z,101608.19
2022-11-26T12:02:37.917Z,101600.81
2022-11-26T12:06:11.982Z,101605.09
2022-11-26T12:09:22.830Z,101603.19
2022-11-26T12:12:47.792Z,101616.03
2022-11-26T12:16:00.519Z,101601.91
2022-11-26T12:19:12.796Z,101616.37
2022-11-26T12:22:36.202Z,101616.72
2022-11-26T12:25:39.799Z,101627.66
2022-11-26T12:28:58.531Z,101634.88
2022-11-26T12:32:10.509Z,101629.25
2022-11-26T12:35:29.716Z,101632.47
2022-11-26T12:38:42.549Z,101611.44
2022-11-26T12:42:02.267Z,101621.06
2022-11-26T12:45:40.298Z,101625.09
2022-11-26T12:48:48.918Z,101636.50
2022-11-26T12:52:03.806Z,101637.94
2022-11-26T12:55:21.920Z,101630.37
2022-11-26T12:58:43.815Z,101637.94
2022-11-26T13:01:46.496Z,101647.41
2022-11-26T13:04:51.356Z,101644.97
2022-11-26T13:08:09.039Z,101621.69
2022-11-26T13:11:39.611Z,101648.34
2022-11-26T13:14:55.202Z,101642.09
2022-11-26T13:18:00.687Z,101641.44
2022-11-26T13:21:29.766Z,101638.88
2022-11-26T13:24:50.900Z,101631.97
2022-11-26T13:28:32.724Z,101630.50
2022-11-26T13:31:41.378Z,101637.56
2022-11-26T13:34:59.736Z,101629.87
2022-11-26T13:38:39.557Z,101612.69
2022-11-26T13:42:00.982Z,101628.12
2022-11-26T13:45:34.926Z,101629.41
2022-11-26T13:48:47.631Z,101630.81
2022-11-26T13:52:06.578Z,101634.81
2022-11-26T13:55:21.556Z,101641.72
2022-11-26T13:58:30.648Z,101644.28
2022-11-26T14:01:40.284Z,101653.91
2022-11-26T14:04:49.432Z,101647.81
2022-11-26T14:08:30.670Z,101647.13
2022-11-26T14:11:45.633Z,101642.31
2022-11-26T14:14:49.816Z,101639.72
2022-11-26T14:17:56.905Z,101637.66
2022-11-26T14:21:02.384Z,101647.13
2022-11-26T14:24:05.357Z,101647.56
2022-11-26T14:27:07.954Z,101643.53
2022-11-26T14:30:29.323Z,101649.28
2022-11-26T14:33:32.613Z,101651.50
2022-11-26T14:36:35.507Z,101659.00
2022-11-26T14:39:38.183Z,101642.12
2022-11-26T14:42:41.204Z,101659.75
2022-11-26T14:45:47.476Z,101646.16
2022-11-26T14:48:51.004Z,101655.56
2022-11-26T14:51:53.918Z,101650.87
2022-11-26T14:55:00.116Z,101652.44
2022-11-26T14:58:14.415Z,101655.03
2022-11-26T15:01:22.992Z,101653.19
2022-11-26T15:04:31.109Z,101662.00
2022-11-26T15:07:34.069Z,101649.41
2022-11-26T15:10:46.269Z,101655.25
2022-11-26T15:13:49.183Z,101663.78
2022-11-26T15:16:58.429Z,101655.53
2022-11-26T15:20:06.733Z,101650.66
2022-11-26T15:23:18.665Z,101647.69
2022-11-26T15:26:25.823Z,101646.53
2022-11-26T15:29:37.511Z,101656.50
2022-11-26T15:32:40.525Z,101662.00
2022-11-26T15:35:43.939Z,101673.19
2022-11-26T15:39:03.183Z,101682.41
2022-11-26T15:42:22.674Z,101683.91
2022-11-26T15:45:36.152Z,101668.63
2022-11-26T15:48:53.182Z,101680.13
2022-11-26T15:51:59.411Z,101675.91
2022-11-26T15:55:14.769Z,101692.09
2022-11-26T15:58:35.334Z,101672.97
2022-11-26T16:01:38.898Z,101693.59
2022-11-26T16:04:49.860Z,101665.44
2022-11-26T16:08:05.951Z,101694.69
2022-11-26T16:11:21.325Z,101694.09
2022-11-26T16:14:35.773Z,101694.78
2022-11-26T16:17:39.304Z,101685.66
2022-11-26T16:20:42.118Z,101702.91
2022-11-26T16:23:57.591Z,101695.34
2022-11-26T16:27:01.627Z,101694.59
2022-11-26T16:30:15.286Z,101701.84
2022-11-26T16:33:17.904Z,101693.81
2022-11-26T16:36:26.896Z,101700.22
2022-11-26T16:39:33.803Z,101702.84
2022-11-26T16:42:40.592Z,101701.88
2022-11-26T16:45:43.877Z,101694.81
2022-11-26T16:48:47.864Z,101708.22
2022-11-26T16:51:50.402Z,101714.84
2022-11-26T16:54:53.427Z,101715.09
2022-11-26T16:57:59.191Z,101720.84
2022-11-26T17:01:02.789Z,101711.03
2022-11-26T17:04:05.583Z,101702.28
2022-11-26T17:07:13.275Z,101726.03
2022-11-26T17:10:18.750Z,101722.41
2022-11-26T17:13:21.956Z,101718.47
2022-11-26T17:16:26.226Z,101727.47
2022-11-26T17:19:29.562Z,101732.69
2022-11-26T17:22:32.163Z,101725.97
2022-11-26T17:25:35.035Z,101724.75
2022-11-26T17:28:37.631Z,101725.69
2022-11-26T17:31:40.595Z,101718.16
2022-11-26T17:34:44.132Z,101736.47
2022-11-26T17:37:47.455Z,101723.28
2022-11-26T17:40:50.563Z,101730.25
2022-11-26T17:43:53.698Z,101726.41
2022-11-26T17:50:24.800Z,101739.19
2022-11-26T17:53:27.645Z,101735.56
2022-11-26T17:56:30.955Z,101747.91
2022-11-26T17:59:33.939Z,101750.22
2022-11-26T18:02:37.191Z,101753.34
2022-11-26T18:05:42.298Z,101725.53
2022-11-26T18:08:46.408Z,101752.53
2022-11-26T18:11:52.388Z,101751.09
2022-11-26T18:14:56.198Z,101754.00
2022-11-26T18:18:00.559Z,101748.25
2022-11-26T18:21:03.197Z,101755.31
2022-11-26T18:24:07.199Z,101762.06
2022-11-26T18:27:10.047Z,101763.78
2022-11-26T18:30:14.427Z,101754.12
2022-11-26T18:33:17.314Z,101738.94
2022-11-26T18:36:20.869Z,101746.47
2022-11-26T18:39:23.751Z,101753.22
2022-11-26T18:42:36.993Z,101751.09
2022-11-26T18:45:42.109Z,101726.13
2022-11-26T18:48:47.627Z,101753.06
2022-11-26T18:51:50.329Z,101753.59
2022-11-26T18:54:53.460Z,101750.81
2022-11-26T18:57:56.292Z,101745.75
2022-11-26T19:00:59.401Z,101747.22
2022-11-26T19:04:04.120Z,101757.66
2022-11-26T19:07:08.542Z,101776.53
2022-11-26T19:10:12.275Z,101760.66
2022-11-26T19:13:16.067Z,101754.81
2022-11-26T19:16:20.180Z,101758.78
2022-11-26T19:19:23.468Z,101765.69
2022-11-26T19:22:26.225Z,101764.00
2022-11-26T19:25:30.659Z,101762.88
2022-11-26T19:28:33.723Z,101757.59
2022-11-26T19:31:39.302Z,101754.16
2022-11-26T19:34:42.179Z,101765.22
2022-11-26T19:37:45.605Z,101758.72
2022-11-26T19:40:48.427Z,101749.41
2022-11-26T19:43:51.883Z,101768.41
2022-11-26T19:46:54.451Z,101764.72
2022-11-26T19:49:57.978Z,101772.59
2022-11-26T19:53:01.356Z,101758.72
2022-11-26T19:56:06.156Z,101769.94
2022-11-26T19:59:09.359Z,101764.50
2022-11-26T20:02:13.134Z,101772.06
2022-11-26T20:05:16.461Z,101772.97
2022-11-26T20:08:19.334Z,101781.03
2022-11-26T20:11:22.828Z,101778.31
2022-11-26T20:14:25.627Z,101773.91
2022-11-26T20:17:28.483Z,101773.00
2022-11-26T20:20:31.299Z,101780.03
2022-11-26T20:23:34.387Z,101779.69
2022-11-26T20:26:40.329Z,101786.81
2022-11-26T20:29:43.512Z,101786.06
2022-11-26T20:32:49.139Z,101783.59
2022-11-26T20:35:52.023Z,101783.28
2022-11-26T20:38:56.960Z,101783.69
2022-11-26T20:42:00.165Z,101780.28
2022-11-26T20:45:03.350Z,101779.78
2022-11-26T20:48:08.334Z,101773.16
2022-11-26T20:51:15.566Z,101762.81
2022-11-26T20:54:18.520Z,101774.12
2022-11-26T20:57:23.471Z,101771.50
2022-11-26T21:00:27.765Z,101778.91
2022-11-26T21:03:31.684Z,101781.69
2022-11-26T21:06:35.747Z,101765.41
2022-11-26T21:09:38.821Z,101773.69
2022-11-26T21:12:42.716Z,101760.41
2022-11-26T21:15:49.590Z,101764.50
2022-11-26T21:18:54.751Z,101777.22
2022-11-26T21:21:57.492Z,101772.44
2022-11-26T21:25:00.354Z,101765.41
2022-11-26T21:28:04.150Z,101775.66
2022-11-26T21:31:14.806Z,101774.75
2022-11-26T21:34:18.100Z,101764.47
2022-11-26T21:37:21.840Z,101782.00
2022-11-26T21:40:25.730Z,101784.59
2022-11-26T21:43:28.623Z,101779.63
2022-11-26T21:46:37.579Z,101787.97
2022-11-26T21:49:46.400Z,101782.59
2022-11-26T21:52:49.123Z,101786.06
2022-11-26T21:55:53.185Z,101790.47
2022-11-26T21:58:57.460Z,101789.06
2022-11-26T22:02:00.478Z,101797.53
2022-11-26T22:05:03.561Z,101794.38
2022-11-26T22:08:07.203Z,101792.75
2022-11-26T22:11:16.476Z,101789.53
2022-11-26T22:14:19.504Z,101795.75
2022-11-26T22:17:22.413Z,101797.06
2022-11-26T22:20:26.676Z,101799.37
2022-11-26T22:23:29.566Z,101797.72
2022-11-26T22:26:33.084Z,101793.28
2022-11-26T22:29:36.030Z,101794.88
2022-11-26T22:32:38.659Z,101792.94
2022-11-26T22:35:41.555Z,101787.25
2022-11-26T22:38:44.222Z,101787.31
2022-11-26T22:41:48.428Z,101790.09
2022-11-26T22:44:51.146Z,101785.03
2022-11-26T22:47:54.081Z,101783.72
2022-11-26T22:50:56.810Z,101784.59
2022-11-26T22:54:02.110Z,101786.66
2022-11-26T22:57:04.903Z,101800.06
2022-11-26T23:00:14.935Z,101788.53
2022-11-26T23:03:19.070Z,101782.97
2022-11-26T23:06:24.243Z,101786.44
2022-11-26T23:09:27.136Z,101779.41
2022-11-26T23:12:30.135Z,101785.03
2022-11-26T23:15:33.736Z,101781.00
2022-11-26T23:18:38.057Z,101785.13
2022-11-26T23:21:42.890Z,101773.69
2022-11-26T23:24:45.811Z,101774.78
2022-11-26T23:27:48.636Z,101767.53
2022-11-26T23:30:51.659Z,101782.19
2022-11-26T23:33:54.602Z,101783.81
2022-11-26T23:36:57.496Z,101777.75
2022-11-26T23:40:00.106Z,101782.00
2022-11-26T23:43:08.280Z,101775.84
2022-11-26T23:46:14.270Z,101782.25
2022-11-26T23:49:17.299Z,101784.72
2022-11-26T23:52:20.047Z,101790.75
2022-11-26T23:55:22.947Z,101792.87
2022-11-26T23:58:25.580Z,101779.91
